UAL1909 KIAH-MMVR
Flight info
| Callsign | UAL1909 |
|---|---|
| Flight time | 2h 7m |
| Altitude | 36000 |
| Route | RITAA7 WWREN DCT BRO/N0455F350 DCT IPRUL UT48 AVALI UT61 DURIB DURIB1B |
| Aircraft | B738/M-SDE2E3FGHIRWXY/LB1 |
Departure
| Time | 2026-04-26 14:11 |
|---|---|
| Airport | George Bush Intercontinental Airport (KIAH) |
Arrival
| Time | 2026-04-26 16:19 |
|---|---|
| Airport | General Heriberto Jara International Airport (MMVR) |
| Time | Latitude | Longitude | Altitude | Speed | Heading |
|---|---|---|---|---|---|
| 2026-04-26 13:44 | 29.98940 | -95.34104 | 106 ft | 0 kts | 240° |
| 2026-04-26 13:45 | 29.98941 | -95.34103 | 106 ft | 0 kts | 240° |
| 2026-04-26 14:03 | 29.98942 | -95.34102 | 96 ft | 2 kts | 240° |
| 2026-04-26 14:03 | 29.98954 | -95.34077 | 105 ft | 4 kts | 242° |
| 2026-04-26 14:03 | 29.98963 | -95.34049 | 106 ft | 4 kts | 266° |
| 2026-04-26 14:04 | 29.98959 | -95.34022 | 106 ft | 4 kts | 321° |
| 2026-04-26 14:04 | 29.98943 | -95.34016 | 105 ft | 4 kts | 0° |
| 2026-04-26 14:04 | 29.98927 | -95.34016 | 105 ft | 0 kts | 0° |
| 2026-04-26 14:06 | 29.98933 | -95.34016 | 105 ft | 5 kts | 0° |
| 2026-04-26 14:06 | 29.99018 | -95.34017 | 106 ft | 18 kts | 351° |
| 2026-04-26 14:07 | 29.99087 | -95.34147 | 106 ft | 24 kts | 268° |
| 2026-04-26 14:07 | 29.99077 | -95.34355 | 106 ft | 28 kts | 272° |
| 2026-04-26 14:07 | 29.99084 | -95.34595 | 106 ft | 32 kts | 270° |
| 2026-04-26 14:07 | 29.99085 | -95.34865 | 106 ft | 35 kts | 272° |
| 2026-04-26 14:08 | 29.99092 | -95.35155 | 106 ft | 37 kts | 270° |
| 2026-04-26 14:08 | 29.99087 | -95.35453 | 106 ft | 37 kts | 266° |
| 2026-04-26 14:08 | 29.99094 | -95.35736 | 106 ft | 34 kts | 275° |
| 2026-04-26 14:08 | 29.99061 | -95.35993 | 106 ft | 32 kts | 240° |
| 2026-04-26 14:09 | 29.98879 | -95.35974 | 107 ft | 29 kts | 163° |
| 2026-04-26 14:09 | 29.98750 | -95.35854 | 108 ft | 22 kts | 74° |
| 2026-04-26 14:09 | 29.98701 | -95.35730 | 106 ft | 20 kts | 147° |
| 2026-04-26 14:09 | 29.98655 | -95.35702 | 107 ft | 0 kts | 153° |
| 2026-04-26 14:10 | 29.98654 | -95.35702 | 107 ft | 1 kts | 154° |
| 2026-04-26 14:10 | 29.98515 | -95.35618 | 107 ft | 59 kts | 152° |
| 2026-04-26 14:11 | 29.96902 | -95.34679 | 529 ft | 168 kts | 159° |
| 2026-04-26 14:11 | 29.95905 | -95.34079 | 1708 ft | 157 kts | 148° |
| 2026-04-26 14:11 | 29.94949 | -95.33288 | 2373 ft | 183 kts | 145° |
| 2026-04-26 14:12 | 29.93991 | -95.32176 | 2991 ft | 203 kts | 131° |
| 2026-04-26 14:12 | 29.93136 | -95.30820 | 3571 ft | 222 kts | 131° |
| 2026-04-26 14:12 | 29.92167 | -95.29270 | 3892 ft | 251 kts | 130° |
| 2026-04-26 14:12 | 29.91130 | -95.27650 | 4826 ft | 250 kts | 132° |
| 2026-04-26 14:13 | 29.88922 | -95.24389 | 6287 ft | 265 kts | 130° |
| 2026-04-26 14:13 | 29.87805 | -95.22640 | 6847 ft | 279 kts | 129° |
| 2026-04-26 14:13 | 29.86622 | -95.20831 | 7574 ft | 281 kts | 129° |
| 2026-04-26 14:14 | 29.85437 | -95.19012 | 8256 ft | 296 kts | 129° |
| 2026-04-26 14:14 | 29.84211 | -95.17004 | 8812 ft | 315 kts | 124° |
| 2026-04-26 14:14 | 29.83003 | -95.14820 | 9431 ft | 331 kts | 124° |
| 2026-04-26 14:14 | 29.81589 | -95.12659 | 10008 ft | 345 kts | 138° |
| 2026-04-26 14:15 | 29.79677 | -95.10924 | 10603 ft | 356 kts | 146° |
| 2026-04-26 14:15 | 29.78287 | -95.09879 | 10984 ft | 364 kts | 155° |
| 2026-04-26 14:15 | 29.75838 | -95.09113 | 11555 ft | 370 kts | 180° |
| 2026-04-26 14:15 | 29.73284 | -95.09484 | 12155 ft | 369 kts | 200° |
| 2026-04-26 14:16 | 29.71048 | -95.10812 | 12724 ft | 359 kts | 219° |
| 2026-04-26 14:16 | 29.69124 | -95.12634 | 13343 ft | 359 kts | 222° |
| 2026-04-26 14:16 | 29.67207 | -95.14495 | 13930 ft | 362 kts | 222° |
| 2026-04-26 14:16 | 29.65286 | -95.16379 | 14490 ft | 363 kts | 225° |
| 2026-04-26 14:17 | 29.63456 | -95.18388 | 15055 ft | 365 kts | 227° |
| 2026-04-26 14:17 | 29.61636 | -95.20436 | 15626 ft | 367 kts | 227° |
| 2026-04-26 14:17 | 29.59795 | -95.22482 | 16210 ft | 369 kts | 226° |
| 2026-04-26 14:17 | 29.57682 | -95.24179 | 16790 ft | 376 kts | 210° |
| 2026-04-26 14:18 | 29.55322 | -95.25475 | 17416 ft | 377 kts | 210° |
| 2026-04-26 14:18 | 29.52952 | -95.26768 | 18047 ft | 377 kts | 210° |
| 2026-04-26 14:18 | 29.50581 | -95.28068 | 18613 ft | 377 kts | 210° |
| 2026-04-26 14:18 | 29.48217 | -95.29373 | 19152 ft | 377 kts | 211° |
| 2026-04-26 14:19 | 29.45857 | -95.30685 | 19704 ft | 377 kts | 211° |
| 2026-04-26 14:19 | 29.43495 | -95.32004 | 20231 ft | 379 kts | 211° |
| 2026-04-26 14:19 | 29.41085 | -95.33357 | 20318 ft | 392 kts | 211° |
| 2026-04-26 14:19 | 29.38633 | -95.34735 | 20451 ft | 404 kts | 211° |
| 2026-04-26 14:20 | 29.36078 | -95.36170 | 20571 ft | 413 kts | 211° |
| 2026-04-26 14:20 | 29.33486 | -95.37621 | 20677 ft | 414 kts | 211° |
| 2026-04-26 14:20 | 29.30901 | -95.39063 | 20768 ft | 412 kts | 211° |
| 2026-04-26 14:20 | 29.28326 | -95.40498 | 20877 ft | 411 kts | 211° |
| 2026-04-26 14:21 | 29.25756 | -95.41932 | 21026 ft | 410 kts | 211° |
| 2026-04-26 14:21 | 29.23180 | -95.43443 | 20778 ft | 412 kts | 213° |
| 2026-04-26 14:21 | 29.20662 | -95.44981 | 19896 ft | 421 kts | 213° |
| 2026-04-26 14:21 | 29.18078 | -95.46579 | 19439 ft | 417 kts | 213° |
| 2026-04-26 14:22 | 29.15587 | -95.48142 | 19122 ft | 404 kts | 215° |
| 2026-04-26 14:22 | 29.13136 | -95.49696 | 18599 ft | 405 kts | 210° |
| 2026-04-26 14:22 | 29.10583 | -95.50943 | 18659 ft | 390 kts | 207° |
| 2026-04-26 14:22 | 29.08120 | -95.52071 | 18785 ft | 382 kts | 208° |
| 2026-04-26 14:23 | 29.05617 | -95.53305 | 18779 ft | 399 kts | 208° |
| 2026-04-26 14:23 | 29.03073 | -95.54608 | 19067 ft | 404 kts | 210° |
| 2026-04-26 14:23 | 29.00519 | -95.55985 | 19342 ft | 406 kts | 210° |
| 2026-04-26 14:23 | 28.97977 | -95.57394 | 19616 ft | 406 kts | 211° |
| 2026-04-26 14:24 | 28.95441 | -95.58811 | 19893 ft | 406 kts | 211° |
| 2026-04-26 14:24 | 28.92904 | -95.60225 | 20181 ft | 406 kts | 211° |
| 2026-04-26 14:24 | 28.90363 | -95.61636 | 20458 ft | 406 kts | 211° |
| 2026-04-26 14:24 | 28.87853 | -95.63113 | 20721 ft | 405 kts | 213° |
| 2026-04-26 14:25 | 28.85386 | -95.64658 | 21078 ft | 404 kts | 214° |
| 2026-04-26 14:25 | 28.82925 | -95.66233 | 21471 ft | 407 kts | 214° |
| 2026-04-26 14:25 | 28.80449 | -95.67822 | 21891 ft | 410 kts | 214° |
| 2026-04-26 14:25 | 28.77959 | -95.69413 | 22300 ft | 412 kts | 214° |
| 2026-04-26 14:26 | 28.75446 | -95.71009 | 22713 ft | 414 kts | 214° |
| 2026-04-26 14:26 | 28.72922 | -95.72604 | 23124 ft | 416 kts | 214° |
| 2026-04-26 14:26 | 28.70382 | -95.74204 | 23533 ft | 418 kts | 214° |
| 2026-04-26 14:26 | 28.67834 | -95.75805 | 23887 ft | 419 kts | 214° |
| 2026-04-26 14:27 | 28.65275 | -95.77410 | 24244 ft | 420 kts | 214° |
| 2026-04-26 14:27 | 28.62749 | -95.78993 | 24600 ft | 421 kts | 214° |
| 2026-04-26 14:27 | 28.60180 | -95.80604 | 24961 ft | 422 kts | 214° |
| 2026-04-26 14:27 | 28.57609 | -95.82213 | 25336 ft | 423 kts | 214° |
| 2026-04-26 14:28 | 28.55029 | -95.83829 | 25716 ft | 423 kts | 214° |
| 2026-04-26 14:28 | 28.52451 | -95.85442 | 26075 ft | 423 kts | 214° |
| 2026-04-26 14:28 | 28.49867 | -95.87058 | 26465 ft | 423 kts | 214° |
| 2026-04-26 14:28 | 28.47285 | -95.88672 | 26858 ft | 423 kts | 215° |
| 2026-04-26 14:29 | 28.44706 | -95.90283 | 27253 ft | 423 kts | 215° |
| 2026-04-26 14:29 | 28.42125 | -95.91894 | 27653 ft | 423 kts | 215° |
| 2026-04-26 14:29 | 28.39551 | -95.93500 | 28058 ft | 422 kts | 215° |
| 2026-04-26 14:29 | 28.36980 | -95.95104 | 28468 ft | 421 kts | 215° |
| 2026-04-26 14:30 | 28.34412 | -95.96705 | 28878 ft | 421 kts | 216° |
| 2026-04-26 14:30 | 28.31850 | -95.98301 | 29308 ft | 420 kts | 216° |
| 2026-04-26 14:30 | 28.29291 | -95.99894 | 29737 ft | 418 kts | 216° |
| 2026-04-26 14:30 | 28.26744 | -96.01480 | 30138 ft | 417 kts | 216° |
| 2026-04-26 14:31 | 28.24188 | -96.03072 | 30262 ft | 423 kts | 216° |
| 2026-04-26 14:31 | 28.18931 | -96.06347 | 30273 ft | 438 kts | 215° |
| 2026-04-26 14:31 | 28.16259 | -96.08003 | 30442 ft | 436 kts | 215° |
| 2026-04-26 14:32 | 28.13606 | -96.09645 | 30639 ft | 433 kts | 215° |
| 2026-04-26 14:32 | 28.10952 | -96.11264 | 30856 ft | 434 kts | 214° |
| 2026-04-26 14:32 | 28.08274 | -96.12854 | 31069 ft | 436 kts | 214° |
| 2026-04-26 14:32 | 28.05579 | -96.14437 | 31286 ft | 437 kts | 214° |
| 2026-04-26 14:33 | 28.02872 | -96.16021 | 31501 ft | 438 kts | 214° |
| 2026-04-26 14:33 | 28.00163 | -96.17607 | 31720 ft | 439 kts | 214° |
| 2026-04-26 14:33 | 27.97446 | -96.19200 | 31942 ft | 440 kts | 214° |
| 2026-04-26 14:33 | 27.94724 | -96.20798 | 32165 ft | 441 kts | 214° |
| 2026-04-26 14:34 | 27.92001 | -96.22398 | 32379 ft | 442 kts | 214° |
| 2026-04-26 14:34 | 27.89268 | -96.24005 | 32597 ft | 443 kts | 214° |
| 2026-04-26 14:34 | 27.86529 | -96.25615 | 32827 ft | 444 kts | 214° |
| 2026-04-26 14:34 | 27.83788 | -96.27226 | 33057 ft | 445 kts | 214° |
| 2026-04-26 14:35 | 27.81042 | -96.28839 | 33291 ft | 445 kts | 214° |
| 2026-04-26 14:35 | 27.78291 | -96.30453 | 33526 ft | 446 kts | 214° |
| 2026-04-26 14:35 | 27.75539 | -96.32067 | 33759 ft | 446 kts | 214° |
| 2026-04-26 14:35 | 27.72821 | -96.33660 | 33973 ft | 446 kts | 214° |
| 2026-04-26 14:36 | 27.70030 | -96.35296 | 34177 ft | 446 kts | 214° |
| 2026-04-26 14:36 | 27.67313 | -96.36887 | 34379 ft | 446 kts | 214° |
| 2026-04-26 14:36 | 27.64557 | -96.38499 | 34585 ft | 446 kts | 214° |
| 2026-04-26 14:36 | 27.61803 | -96.40110 | 34782 ft | 446 kts | 214° |
| 2026-04-26 14:37 | 27.59049 | -96.41719 | 35001 ft | 446 kts | 214° |
| 2026-04-26 14:37 | 27.56298 | -96.43326 | 35211 ft | 445 kts | 214° |
| 2026-04-26 14:37 | 27.53547 | -96.44933 | 35420 ft | 445 kts | 215° |
| 2026-04-26 14:37 | 27.50804 | -96.46533 | 35638 ft | 444 kts | 215° |
| 2026-04-26 14:38 | 27.48059 | -96.48134 | 35834 ft | 444 kts | 215° |
| 2026-04-26 14:38 | 27.42535 | -96.51358 | 35863 ft | 450 kts | 214° |
| 2026-04-26 14:39 | 27.36934 | -96.54622 | 35872 ft | 456 kts | 214° |
| 2026-04-26 14:39 | 27.31281 | -96.57908 | 35846 ft | 459 kts | 214° |
| 2026-04-26 14:40 | 27.25603 | -96.61203 | 35860 ft | 460 kts | 214° |
| 2026-04-26 14:40 | 27.19911 | -96.64503 | 35857 ft | 460 kts | 214° |
| 2026-04-26 14:41 | 27.14219 | -96.67799 | 35857 ft | 460 kts | 214° |
| 2026-04-26 14:41 | 27.08538 | -96.71086 | 35853 ft | 459 kts | 214° |
| 2026-04-26 14:42 | 27.02876 | -96.74358 | 35853 ft | 457 kts | 214° |
| 2026-04-26 14:42 | 26.97224 | -96.77622 | 35846 ft | 456 kts | 214° |
| 2026-04-26 14:43 | 26.91587 | -96.80874 | 35854 ft | 455 kts | 214° |
| 2026-04-26 14:43 | 26.85954 | -96.84119 | 35855 ft | 455 kts | 214° |
| 2026-04-26 14:44 | 26.80368 | -96.87334 | 35851 ft | 454 kts | 214° |
| 2026-04-26 14:44 | 26.74716 | -96.90583 | 35848 ft | 453 kts | 214° |
| 2026-04-26 14:45 | 26.69105 | -96.93805 | 35842 ft | 453 kts | 214° |
| 2026-04-26 14:45 | 26.63502 | -96.97019 | 35846 ft | 452 kts | 214° |
| 2026-04-26 14:46 | 26.57943 | -97.00204 | 35844 ft | 452 kts | 214° |
| 2026-04-26 14:46 | 26.52345 | -97.03408 | 35843 ft | 452 kts | 214° |
| 2026-04-26 14:47 | 26.46740 | -97.06613 | 35840 ft | 453 kts | 214° |
| 2026-04-26 14:47 | 26.41132 | -97.09815 | 35843 ft | 453 kts | 214° |
| 2026-04-26 14:48 | 26.35516 | -97.13019 | 35832 ft | 454 kts | 214° |
| 2026-04-26 14:48 | 26.29890 | -97.16225 | 35846 ft | 454 kts | 214° |
| 2026-04-26 14:49 | 26.24253 | -97.19433 | 35844 ft | 456 kts | 214° |
| 2026-04-26 14:49 | 26.18597 | -97.22650 | 35850 ft | 457 kts | 214° |
| 2026-04-26 14:50 | 26.12926 | -97.25870 | 35854 ft | 458 kts | 214° |
| 2026-04-26 14:50 | 26.07238 | -97.29097 | 35823 ft | 459 kts | 214° |
| 2026-04-26 14:51 | 26.01549 | -97.32321 | 35847 ft | 459 kts | 214° |
| 2026-04-26 14:51 | 25.95834 | -97.35529 | 35838 ft | 463 kts | 211° |
| 2026-04-26 14:52 | 25.92132 | -97.36903 | 35863 ft | 474 kts | 199° |
| 2026-04-26 14:52 | 25.86879 | -97.37549 | 35842 ft | 487 kts | 186° |
| 2026-04-26 14:53 | 25.80158 | -97.37356 | 35860 ft | 488 kts | 184° |
| 2026-04-26 14:53 | 25.73361 | -97.37108 | 35845 ft | 488 kts | 185° |
| 2026-04-26 14:54 | 25.68491 | -97.36966 | 35832 ft | 489 kts | 185° |
| 2026-04-26 14:54 | 25.62700 | -97.36826 | 35846 ft | 488 kts | 185° |
| 2026-04-26 14:55 | 25.57644 | -97.36715 | 35834 ft | 488 kts | 185° |
| 2026-04-26 14:55 | 25.50896 | -97.36569 | 35837 ft | 488 kts | 185° |
| 2026-04-26 14:56 | 25.45034 | -97.36441 | 35819 ft | 488 kts | 185° |
| 2026-04-26 14:56 | 25.38258 | -97.36290 | 35834 ft | 488 kts | 185° |
| 2026-04-26 14:57 | 25.33652 | -97.36188 | 35838 ft | 488 kts | 185° |
| 2026-04-26 14:57 | 25.26857 | -97.36037 | 35841 ft | 488 kts | 185° |
| 2026-04-26 14:58 | 25.20050 | -97.35887 | 35841 ft | 490 kts | 185° |
| 2026-04-26 14:58 | 25.13228 | -97.35736 | 35825 ft | 491 kts | 185° |
| 2026-04-26 14:59 | 25.06391 | -97.35585 | 35841 ft | 492 kts | 185° |
| 2026-04-26 14:59 | 24.99550 | -97.35433 | 35839 ft | 492 kts | 185° |
| 2026-04-26 15:00 | 24.92699 | -97.35282 | 35838 ft | 492 kts | 185° |
| 2026-04-26 15:00 | 24.85851 | -97.35131 | 35841 ft | 492 kts | 185° |
| 2026-04-26 15:01 | 24.79011 | -97.34980 | 35832 ft | 492 kts | 185° |
| 2026-04-26 15:01 | 24.72164 | -97.34829 | 35840 ft | 492 kts | 185° |
| 2026-04-26 15:02 | 24.65324 | -97.34679 | 35839 ft | 492 kts | 185° |
| 2026-04-26 15:02 | 24.59639 | -97.34554 | 35840 ft | 492 kts | 185° |
| 2026-04-26 15:03 | 24.52796 | -97.34399 | 35836 ft | 492 kts | 184° |
| 2026-04-26 15:03 | 24.45939 | -97.33646 | 35843 ft | 497 kts | 178° |
| 2026-04-26 15:04 | 24.39083 | -97.32571 | 35833 ft | 498 kts | 178° |
| 2026-04-26 15:04 | 24.32226 | -97.31519 | 35837 ft | 497 kts | 178° |
| 2026-04-26 15:05 | 24.25371 | -97.30527 | 35836 ft | 497 kts | 178° |
| 2026-04-26 15:05 | 24.18517 | -97.29560 | 35820 ft | 496 kts | 178° |
| 2026-04-26 15:06 | 24.11670 | -97.28597 | 35834 ft | 496 kts | 178° |
| 2026-04-26 15:06 | 24.04822 | -97.27631 | 35837 ft | 496 kts | 178° |
| 2026-04-26 15:07 | 23.94554 | -97.26183 | 35836 ft | 496 kts | 178° |
| 2026-04-26 15:07 | 23.87752 | -97.25225 | 35822 ft | 496 kts | 178° |
| 2026-04-26 15:08 | 23.80907 | -97.24261 | 35840 ft | 496 kts | 178° |
| 2026-04-26 15:08 | 23.74059 | -97.23298 | 35838 ft | 496 kts | 178° |
| 2026-04-26 15:09 | 23.67205 | -97.22336 | 35840 ft | 496 kts | 178° |
| 2026-04-26 15:09 | 23.60359 | -97.21376 | 35838 ft | 496 kts | 178° |
| 2026-04-26 15:10 | 23.54614 | -97.20571 | 35828 ft | 496 kts | 178° |
| 2026-04-26 15:10 | 23.46654 | -97.19456 | 35839 ft | 496 kts | 178° |
| 2026-04-26 15:11 | 23.39806 | -97.18498 | 35839 ft | 496 kts | 178° |
| 2026-04-26 15:11 | 23.32956 | -97.17541 | 35840 ft | 496 kts | 178° |
| 2026-04-26 15:12 | 23.26100 | -97.16584 | 35821 ft | 497 kts | 178° |
| 2026-04-26 15:12 | 23.19247 | -97.15629 | 35834 ft | 496 kts | 178° |
| 2026-04-26 15:13 | 23.12395 | -97.14674 | 35839 ft | 497 kts | 178° |
| 2026-04-26 15:13 | 23.05537 | -97.13719 | 35842 ft | 497 kts | 178° |
| 2026-04-26 15:14 | 22.98682 | -97.12763 | 35838 ft | 497 kts | 178° |
| 2026-04-26 15:14 | 22.91818 | -97.11807 | 35831 ft | 497 kts | 178° |
| 2026-04-26 15:15 | 22.84958 | -97.10853 | 35843 ft | 497 kts | 178° |
| 2026-04-26 15:15 | 22.78092 | -97.09899 | 35840 ft | 497 kts | 178° |
| 2026-04-26 15:16 | 22.71223 | -97.08945 | 35839 ft | 498 kts | 178° |
| 2026-04-26 15:16 | 22.64400 | -97.07999 | 35837 ft | 498 kts | 178° |
| 2026-04-26 15:17 | 22.58641 | -97.07201 | 35829 ft | 498 kts | 178° |
| 2026-04-26 15:17 | 22.50659 | -97.06096 | 35834 ft | 497 kts | 178° |
| 2026-04-26 15:18 | 22.43798 | -97.05147 | 35837 ft | 497 kts | 178° |
| 2026-04-26 15:18 | 22.36937 | -97.04199 | 35836 ft | 497 kts | 178° |
| 2026-04-26 15:19 | 22.30075 | -97.03252 | 35822 ft | 497 kts | 177° |
| 2026-04-26 15:19 | 22.23226 | -97.02308 | 35833 ft | 496 kts | 177° |
| 2026-04-26 15:20 | 22.16376 | -97.01365 | 35834 ft | 496 kts | 177° |
| 2026-04-26 15:20 | 22.09531 | -97.00423 | 35833 ft | 496 kts | 177° |
| 2026-04-26 15:21 | 22.02691 | -96.99483 | 35835 ft | 495 kts | 178° |
| 2026-04-26 15:21 | 21.95854 | -96.98544 | 35826 ft | 495 kts | 177° |
| 2026-04-26 15:22 | 21.89020 | -96.97606 | 35832 ft | 495 kts | 177° |
| 2026-04-26 15:22 | 21.82195 | -96.96671 | 35834 ft | 494 kts | 177° |
| 2026-04-26 15:23 | 21.75371 | -96.95735 | 35834 ft | 494 kts | 177° |
| 2026-04-26 15:23 | 21.68548 | -96.94793 | 35835 ft | 494 kts | 177° |
| 2026-04-26 15:24 | 21.61729 | -96.93850 | 35823 ft | 494 kts | 177° |
| 2026-04-26 15:24 | 21.54912 | -96.92908 | 35831 ft | 494 kts | 177° |
| 2026-04-26 15:25 | 21.49245 | -96.92128 | 35834 ft | 494 kts | 177° |
| 2026-04-26 15:25 | 21.41277 | -96.91048 | 35834 ft | 494 kts | 177° |
| 2026-04-26 15:26 | 21.34459 | -96.90129 | 35831 ft | 494 kts | 177° |
| 2026-04-26 15:26 | 21.27642 | -96.89209 | 35831 ft | 494 kts | 177° |
| 2026-04-26 15:27 | 21.20868 | -96.88294 | 35828 ft | 494 kts | 177° |
| 2026-04-26 15:27 | 21.14100 | -96.87380 | 34121 ft | 482 kts | 178° |
| 2026-04-26 15:28 | 21.10573 | -96.86862 | 33440 ft | 499 kts | 174° |
| 2026-04-26 15:28 | 21.07238 | -96.86245 | 33996 ft | 476 kts | 173° |
| 2026-04-26 15:28 | 21.04046 | -96.85625 | 33666 ft | 465 kts | 174° |
| 2026-04-26 15:28 | 21.00906 | -96.84931 | 33782 ft | 451 kts | 171° |
| 2026-04-26 15:29 | 20.97800 | -96.84151 | 30661 ft | 499 kts | 172° |
| 2026-04-26 15:29 | 20.95340 | -96.83751 | 31865 ft | 458 kts | 178° |
| 2026-04-26 15:29 | 20.89317 | -96.83005 | 29038 ft | 441 kts | 178° |
| 2026-04-26 15:30 | 20.84068 | -96.82340 | 30335 ft | 441 kts | 186° |
| 2026-04-26 15:30 | 20.81067 | -96.82560 | 30235 ft | 427 kts | 188° |
| 2026-04-26 15:30 | 20.78102 | -96.82558 | 30005 ft | 425 kts | 180° |
| 2026-04-26 15:31 | 20.75173 | -96.82238 | 29804 ft | 420 kts | 177° |
| 2026-04-26 15:31 | 20.69482 | -96.81377 | 29314 ft | 407 kts | 176° |
| 2026-04-26 15:31 | 20.66698 | -96.80957 | 29077 ft | 400 kts | 176° |
| 2026-04-26 15:32 | 20.62148 | -96.80309 | 28700 ft | 394 kts | 176° |
| 2026-04-26 15:32 | 20.59993 | -96.80020 | 28529 ft | 394 kts | 177° |
| 2026-04-26 15:46 | 20.56344 | -96.79539 | 28257 ft | 401 kts | 176° |
| 2026-04-26 15:46 | 20.53583 | -96.79175 | 28022 ft | 398 kts | 176° |
| 2026-04-26 15:46 | 20.50839 | -96.78812 | 27656 ft | 397 kts | 176° |
| 2026-04-26 15:46 | 20.49947 | -96.78694 | 27525 ft | 397 kts | 176° |
| 2026-04-26 15:47 | 20.45347 | -96.78083 | 26827 ft | 398 kts | 176° |
| 2026-04-26 15:47 | 20.39871 | -96.77353 | 26014 ft | 395 kts | 175° |
| 2026-04-26 15:47 | 20.37148 | -96.76990 | 25619 ft | 394 kts | 175° |
| 2026-04-26 15:48 | 20.34423 | -96.76592 | 24637 ft | 396 kts | 175° |
| 2026-04-26 15:48 | 20.31767 | -96.76051 | 24388 ft | 386 kts | 173° |
| 2026-04-26 15:48 | 20.29072 | -96.75793 | 23988 ft | 386 kts | 178° |
| 2026-04-26 15:48 | 20.26412 | -96.75558 | 23722 ft | 381 kts | 175° |
| 2026-04-26 15:49 | 20.23821 | -96.75239 | 23400 ft | 379 kts | 174° |
| 2026-04-26 15:49 | 20.21209 | -96.74882 | 23012 ft | 377 kts | 172° |
| 2026-04-26 15:49 | 20.18660 | -96.74242 | 22633 ft | 376 kts | 161° |
| 2026-04-26 15:49 | 20.16263 | -96.73139 | 22245 ft | 374 kts | 153° |
| 2026-04-26 15:50 | 20.13948 | -96.71888 | 21873 ft | 373 kts | 153° |
| 2026-04-26 15:50 | 20.11648 | -96.70621 | 21496 ft | 371 kts | 152° |
| 2026-04-26 15:50 | 20.09359 | -96.69366 | 21106 ft | 370 kts | 152° |
| 2026-04-26 15:50 | 20.07069 | -96.68121 | 20708 ft | 370 kts | 153° |
| 2026-04-26 15:51 | 20.04774 | -96.66883 | 20273 ft | 370 kts | 153° |
| 2026-04-26 15:51 | 20.02473 | -96.65648 | 19811 ft | 372 kts | 153° |
| 2026-04-26 15:51 | 20.00157 | -96.64408 | 19343 ft | 373 kts | 152° |
| 2026-04-26 15:51 | 19.97836 | -96.63167 | 18891 ft | 374 kts | 152° |
| 2026-04-26 15:52 | 19.95504 | -96.61921 | 18444 ft | 375 kts | 152° |
| 2026-04-26 15:52 | 19.93962 | -96.61098 | 18166 ft | 375 kts | 152° |
| 2026-04-26 15:52 | 19.91628 | -96.59851 | 17662 ft | 376 kts | 152° |
| 2026-04-26 15:52 | 19.89300 | -96.58594 | 17159 ft | 375 kts | 149° |
| 2026-04-26 15:53 | 19.87172 | -96.56994 | 16653 ft | 373 kts | 139° |
| 2026-04-26 15:53 | 19.85205 | -96.55202 | 16180 ft | 372 kts | 137° |
| 2026-04-26 15:53 | 19.82718 | -96.52864 | 16871 ft | 425 kts | 137° |
| 2026-04-26 15:53 | 19.80453 | -96.50822 | 15903 ft | 430 kts | 139° |
| 2026-04-26 15:54 | 19.78192 | -96.48887 | 15617 ft | 415 kts | 139° |
| 2026-04-26 15:54 | 19.76246 | -96.47030 | 17096 ft | 304 kts | 135° |
| 2026-04-26 15:54 | 19.74631 | -96.45344 | 16826 ft | 352 kts | 133° |
| 2026-04-26 15:54 | 19.72812 | -96.43433 | 15652 ft | 380 kts | 133° |
| 2026-04-26 15:55 | 19.70903 | -96.41429 | 14706 ft | 389 kts | 133° |
| 2026-04-26 15:55 | 19.68973 | -96.39407 | 13766 ft | 390 kts | 133° |
| 2026-04-26 15:55 | 19.67037 | -96.37386 | 12746 ft | 390 kts | 134° |
| 2026-04-26 15:55 | 19.65117 | -96.35362 | 11752 ft | 388 kts | 134° |
| 2026-04-26 15:56 | 19.63221 | -96.33329 | 10778 ft | 386 kts | 134° |
| 2026-04-26 15:56 | 19.61367 | -96.31288 | 9846 ft | 382 kts | 134° |
| 2026-04-26 15:56 | 19.60168 | -96.29934 | 9184 ft | 379 kts | 134° |
| 2026-04-26 15:56 | 19.58390 | -96.27894 | 8188 ft | 374 kts | 134° |
| 2026-04-26 15:57 | 19.56647 | -96.25876 | 7219 ft | 368 kts | 134° |
| 2026-04-26 15:57 | 19.54936 | -96.23885 | 6274 ft | 362 kts | 134° |
| 2026-04-26 15:57 | 19.53262 | -96.21927 | 5530 ft | 351 kts | 133° |
| 2026-04-26 15:57 | 19.52197 | -96.20676 | 5217 ft | 339 kts | 133° |
| 2026-04-26 15:58 | 19.49681 | -96.17707 | 4481 ft | 313 kts | 133° |
| 2026-04-26 15:58 | 19.48713 | -96.16561 | 4191 ft | 305 kts | 133° |
| 2026-04-26 15:58 | 19.47331 | -96.14921 | 3895 ft | 290 kts | 133° |
| 2026-04-26 15:58 | 19.46039 | -96.13389 | 3831 ft | 269 kts | 133° |
| 2026-04-26 15:59 | 19.44842 | -96.11969 | 3808 ft | 249 kts | 133° |
| 2026-04-26 15:59 | 19.43612 | -96.10838 | 3787 ft | 229 kts | 155° |
| 2026-04-26 15:59 | 19.42097 | -96.10611 | 3677 ft | 217 kts | 195° |
| 2026-04-26 15:59 | 19.40932 | -96.11525 | 3584 ft | 216 kts | 234° |
| 2026-04-26 16:00 | 19.40105 | -96.12864 | 3442 ft | 219 kts | 221° |
| 2026-04-26 16:00 | 19.38749 | -96.13494 | 3226 ft | 215 kts | 188° |
| 2026-04-26 16:00 | 19.37287 | -96.13818 | 2947 ft | 213 kts | 193° |
| 2026-04-26 16:00 | 19.35870 | -96.14178 | 2628 ft | 206 kts | 192° |
| 2026-04-26 16:01 | 19.34485 | -96.14505 | 2308 ft | 202 kts | 192° |
| 2026-04-26 16:01 | 19.33135 | -96.14803 | 2008 ft | 195 kts | 191° |
| 2026-04-26 16:01 | 19.31828 | -96.15078 | 1712 ft | 186 kts | 191° |
| 2026-04-26 16:01 | 19.30571 | -96.15337 | 1668 ft | 188 kts | 191° |
| 2026-04-26 16:02 | 19.29297 | -96.15596 | 1646 ft | 183 kts | 191° |
| 2026-04-26 16:02 | 19.28091 | -96.15840 | 1575 ft | 174 kts | 191° |
| 2026-04-26 16:02 | 19.26908 | -96.16090 | 1413 ft | 173 kts | 192° |
| 2026-04-26 16:02 | 19.26136 | -96.16263 | 1309 ft | 170 kts | 193° |
| 2026-04-26 16:03 | 19.24585 | -96.16612 | 1122 ft | 173 kts | 191° |
| 2026-04-26 16:03 | 19.23412 | -96.16875 | 1061 ft | 173 kts | 192° |
| 2026-04-26 16:03 | 19.22240 | -96.17134 | 1053 ft | 172 kts | 192° |
| 2026-04-26 16:03 | 19.21065 | -96.17382 | 965 ft | 171 kts | 191° |
| 2026-04-26 16:04 | 19.19909 | -96.17623 | 861 ft | 167 kts | 192° |
| 2026-04-26 16:04 | 19.18800 | -96.17855 | 752 ft | 157 kts | 191° |
| 2026-04-26 16:04 | 19.17730 | -96.18077 | 694 ft | 160 kts | 190° |
| 2026-04-26 16:04 | 19.16647 | -96.18308 | 532 ft | 158 kts | 191° |
| 2026-04-26 16:05 | 19.15585 | -96.18533 | 274 ft | 157 kts | 188° |
| 2026-04-26 16:05 | 19.14536 | -96.18749 | 82 ft | 146 kts | 189° |
| 2026-04-26 16:05 | 19.13562 | -96.18961 | 570 ft | 155 kts | 190° |
| 2026-04-26 16:05 | 19.12453 | -96.19251 | 797 ft | 178 kts | 202° |
| 2026-04-26 16:06 | 19.11362 | -96.20049 | 876 ft | 196 kts | 229° |
| 2026-04-26 16:06 | 19.10672 | -96.21260 | 1271 ft | 199 kts | 244° |
| 2026-04-26 16:06 | 19.10320 | -96.22669 | 1232 ft | 201 kts | 265° |
| 2026-04-26 16:06 | 19.10555 | -96.24139 | 1083 ft | 204 kts | 292° |
| 2026-04-26 16:07 | 19.11352 | -96.25367 | 1159 ft | 200 kts | 310° |
| 2026-04-26 16:07 | 19.12337 | -96.26369 | 1189 ft | 197 kts | 321° |
| 2026-04-26 16:07 | 19.13556 | -96.27024 | 1233 ft | 194 kts | 339° |
| 2026-04-26 16:07 | 19.14823 | -96.27453 | 1360 ft | 189 kts | 342° |
| 2026-04-26 16:08 | 19.16108 | -96.27753 | 1397 ft | 188 kts | 348° |
| 2026-04-26 16:08 | 19.17403 | -96.27952 | 1463 ft | 188 kts | 355° |
| 2026-04-26 16:08 | 19.18729 | -96.27914 | 1416 ft | 193 kts | 7° |
| 2026-04-26 16:08 | 19.20049 | -96.27675 | 1458 ft | 192 kts | 12° |
| 2026-04-26 16:09 | 19.21372 | -96.27381 | 1409 ft | 196 kts | 11° |
| 2026-04-26 16:09 | 19.22713 | -96.27099 | 1381 ft | 197 kts | 13° |
| 2026-04-26 16:09 | 19.24041 | -96.26732 | 1320 ft | 198 kts | 17° |
| 2026-04-26 16:09 | 19.25368 | -96.26348 | 1316 ft | 197 kts | 14° |
| 2026-04-26 16:10 | 19.26676 | -96.25951 | 1306 ft | 197 kts | 17° |
| 2026-04-26 16:10 | 19.28019 | -96.25592 | 1263 ft | 198 kts | 13° |
| 2026-04-26 16:10 | 19.29256 | -96.24950 | 1074 ft | 204 kts | 49° |
| 2026-04-26 16:10 | 19.29881 | -96.23665 | 1206 ft | 189 kts | 73° |
| 2026-04-26 16:11 | 19.30341 | -96.22407 | 1385 ft | 181 kts | 71° |
| 2026-04-26 16:11 | 19.30445 | -96.21070 | 1146 ft | 192 kts | 105° |
| 2026-04-26 16:11 | 19.30143 | -96.19691 | 999 ft | 200 kts | 105° |
| 2026-04-26 16:11 | 19.29735 | -96.18304 | 1006 ft | 193 kts | 118° |
| 2026-04-26 16:12 | 19.28925 | -96.17192 | 870 ft | 193 kts | 140° |
| 2026-04-26 16:12 | 19.27859 | -96.16421 | 950 ft | 184 kts | 157° |
| 2026-04-26 16:12 | 19.25354 | -96.16487 | 972 ft | 179 kts | 192° |
| 2026-04-26 16:13 | 19.24167 | -96.16837 | 967 ft | 175 kts | 198° |
| 2026-04-26 16:13 | 19.23788 | -96.16969 | 953 ft | 174 kts | 197° |
| 2026-04-26 16:16 | 19.22707 | -96.17263 | 929 ft | 172 kts | 189° |
| 2026-04-26 16:17 | 19.21542 | -96.17468 | 885 ft | 163 kts | 188° |
| 2026-04-26 16:17 | 19.20440 | -96.17667 | 819 ft | 157 kts | 191° |
| 2026-04-26 16:17 | 19.19385 | -96.17856 | 749 ft | 151 kts | 189° |
| 2026-04-26 16:17 | 19.18364 | -96.17984 | 627 ft | 149 kts | 187° |
| 2026-04-26 16:18 | 19.17353 | -96.18155 | 612 ft | 146 kts | 194° |
| 2026-04-26 16:18 | 19.15308 | -96.18588 | 197 ft | 157 kts | 189° |
| 2026-04-26 16:19 | 19.13513 | -96.18960 | 87 ft | 83 kts | 191° |
| 2026-04-26 16:19 | 19.13161 | -96.19031 | 90 ft | 20 kts | 191° |
| 2026-04-26 16:19 | 19.13004 | -96.19062 | 90 ft | 20 kts | 190° |
| 2026-04-26 16:20 | 19.12846 | -96.19089 | 92 ft | 16 kts | 296° |
| 2026-04-26 16:20 | 19.13107 | -96.19046 | 89 ft | 26 kts | 8° |
| 2026-04-26 16:20 | 19.13303 | -96.19004 | 91 ft | 31 kts | 12° |
| 2026-04-26 16:21 | 19.13529 | -96.18956 | 90 ft | 35 kts | 12° |
| 2026-04-26 16:21 | 19.13779 | -96.18905 | 82 ft | 38 kts | 11° |
| 2026-04-26 16:21 | 19.14016 | -96.18801 | 77 ft | 38 kts | 39° |
| 2026-04-26 16:21 | 19.14194 | -96.18628 | 77 ft | 25 kts | 59° |
| 2026-04-26 16:22 | 19.14187 | -96.18473 | 76 ft | 12 kts | 99° |
| 2026-04-26 16:22 | 19.14185 | -96.18450 | 76 ft | 0 kts | 96° |